AirNav   Air Wisconsin pilot careers
 
 1020 users online  

F92 Kingfisher Airport
Kingfisher, Oklahoma, USA

GOING TO KINGFISHER?


FAA INFORMATION EFFECTIVE 26 APRIL 2018

Location

FAA Identifier: F92
Lat/Long: 35-52-36.0200N / 097-57-10.5750W
35-52.600333N / 097-57.176250W
35.8766722 / -97.9529375
(estimated)
Elevation: 1072 ft. / 327 m (estimated)
Variation: 07E (1985)
From city: 1 mile NW of KINGFISHER, OK
Time zone: UTC -5 (UTC -6 during Standard Time)
Zip code: 73750

Airport Operations

Airport use: Open to the public
Activation date: 10/1945
Control tower: no
ARTCC: FORT WORTH CENTER
FSS: MC ALESTER FLIGHT SERVICE STATION
NOTAMs facility: MLC (NOTAM-D service available)
Attendance: UNATNDD
Wind indicator: lighted
Segmented circle: no
Lights: DUSK-DAWN MIRL RY 18/36 PRESET LOW INTST; TO INCR INTST ACTVT - CTAF.

Airport Communications

CTAF: 122.9

Nearby radio navigation aids

VOR radial/distance  VOR name  Freq  Var
IFIr021/5.0KINGFISHER VORTAC114.7009E
PWAr316/25.4WILEY POST VOR/DME113.4008E
ENDr178/28.1VANCE VORTAC115.4005E
ODGr187/30.9WOODRING VOR/DME109.0008E
IRWr325/35.3WILL ROGERS VORTAC114.1007E

Airport Services

Fuel available: 100LL
AUTOMATED CREDIT CARD FUEL SYSTEM.
Airframe service: NONE
Powerplant service: NONE
Bottled oxygen: NONE
Bulk oxygen: NONE

Runway Information

Runway 18/36

Dimensions: 2800 x 60 ft. / 853 x 18 m
Surface: concrete, in good condition
Weight bearing capacity: 
PCN 4 /F/D/Z/U
Runway edge lights: medium intensity
Gradient: N.
RUNWAY 18  RUNWAY 36
Latitude: 35-52.831000N35-52.369500N
Longitude: 097-57.177333W097-57.175167W
Elevation: 1072.0 ft.1053.0 ft.
Gradient: 0.1%0.7% UP
Traffic pattern: leftright
Runway heading: 173 magnetic, 180 true353 magnetic, 360 true
Markings: basic, in good conditionbasic, in good condition
Obstructions: 28 ft. trees, 540 ft. from runway, 50 ft. right of centerline, 12:1 slope to clearnone

Airport Ownership and Management from official FAA records

Ownership: Publicly-owned
Owner: CITY OF KINGFISHER
301 N. MAIN STREET
KINGFISHER, OK 73750
Phone 405-375-3705
Manager: MIKE BROOKS
301 N. MAIN STREET
KINGFISHER, OK 73750
Phone 405-375-4901
OR 405-368-9491.

Airport Operational Statistics

Aircraft based on the field: 11
Single engine airplanes: 11
    
Aircraft operations: avg 77/week *
62% transient general aviation
37% local general aviation
<1% military
* for 12-month period ending 09 February 2018

Instrument Procedures

There are no published instrument procedures at F92.

Some nearby airports with instrument procedures:

KHSD - Sundance Airport (20 nm SE)
KJWG - Watonga Regional Airport (23 nm W)
KRCE - Clarence E Page Municipal Airport (24 nm S)
KRQO - El Reno Regional Airport (24 nm S)
KPWA - Wiley Post Airport (25 nm SE)
 
Loc | Ops | Rwys | IFR | FBO | Links
Com | Nav | Svcs | Stats | Notes

AirNav Hotels Sweepstakes
 
Area around F92 (Kingfisher Airport)
 
Road maps at: MapQuest Bing Google
 
Aerial photo
No photo
 
Sectional chart

 
Airport distance calculator
Flying to Kingfisher Airport? Find the distance to fly.

From to F92

Sunrise and sunset
Times for 21-May-2018
 Local
(UTC-5)
 Zulu
(UTC)
Morning civil twilight05:5410:54
Sunrise06:2311:23
Sunset20:3401:34
Evening civil twilight21:0302:03

Current date and time
Zulu (UTC)  21-May-2018 12:37:38
Local (UTC-5)  21-May-2018 07:37:38
 
METAR
KHSD 
20nm SE 
211220Z AUTO 00000KT 3/4SM BR OVC002 15/15 A3008 RMK A01
KJWG 
23nm W 
211215Z AUTO 00000KT 2SM BR CLR 15/15 A3011 RMK AO2 T01510151
KRCE 
24nm S 
211055Z AUTO 05005KT 3SM BR 14/14 A3008 RMK AO2
KRQO 
24nm S 
211215Z AUTO 04006KT 2 1/2SM BR CLR 15/15 A3010 RMK AO2 T01500146
KPWA 
25nm SE 
211205Z 04005KT 3SM BR SCT004 16/15 A3008 RMK AO2 T01560150
KEND 
26nm N 
211206Z 35003KT 3SM BR FEW250 13/13 A3008 RMK AO2A RAB1156 SLP182 VISNO RWY35C $
KGOK 
27nm E 
211153Z AUTO 00000KT M1/4SM FG VV002 15/14 A3008 RMK AO2 SLP180 70001 T01500144 10161 20139 51006
KWDG 
31nm N 
211155Z AUTO 32003KT 1 3/4SM BR VV007 13/13 A3008 RMK AO2
KOKC 
34nm SE 
211203Z 04007KT 5SM BR SCT006 16/14 A3008 RMK AO2 T01560144 $
KTIK 
40nm SE 
211211Z 05006KT 2 1/4SM BR OVC003 15/15 A3008 RMK AO2A VIS 2 1/4V4 CIG 002 RWY18 SLP186
TAF
KEND 
26nm N 
211130Z 2111/2216 06006KT 1600 BR SCT020 SCT035 SCT250 QNH3005INS TEMPO 2111/2113 0400 FG BECMG 2113/2114 08006KT 4800 BR SCT020 SCT250 QNH3002INS BECMG 2114/2115 12006KT 9999 NSW FEW025 FEW250 QNH3001INS BECMG 2200/2201 17009KT 9999 SKC QNH3001INS TX28/2123Z TN12/2111Z
NOTAMs
Click for the latest NOTAMs
NOTAMs are issued by the DoD/FAA and will open in a separate window not controlled by AirNav.

 

 
 

FBO, Fuel Providers, and Aircraft Ground Support

  
 Business Name 
 
 Contact 
 
 Services / Description 
 
Fuel Prices
 
Comments
  
City of Kingfisher (FBO) 405-375-4901
405-368-9491
[web site]
[email]
Airport management, Aviation fuel, Aircraft parking (ramp or tiedown), Hangar leasing / sales

More info about City of Kingfisher (FBO)
independent
100LL
SS $4.17 
 Updated 23-Apr-2018
 
   write
SS=Self service
Update Fuel Prices
 

Would you like to see your business listed on this page?

 If your business provides an interesting product or service to pilots, flight crews, aircraft, or users of the Kingfisher Airport, you should consider listing it here.  To start the listing process, click on the button below
 
Add a business
 

Other Pages about Kingfisher Airport

www.mlcafss.jccbi.gov/...
 
Update a link
 
Copyright © AirNav, LLC. All rights reserved. Privacy Policy  Contact